TimeEET,TemperatureF,Dew PointF,Humidity,Sea Level PressureIn,VisibilityMPH,Wind Direction,Wind SpeedMPH,Gust SpeedMPH,PrecipitationIn,Events,Conditions,WindDirDegrees,DateUTC
12:20 AM,42.8,32.0,66,30.15,-9999.0,NE,4.6,-,N/A,,Clear,40,2012-12-31 22:20:00
12:50 AM,41.0,32.0,70,30.15,-9999.0,NE,9.2,-,N/A,,Clear,40,2012-12-31 22:50:00
1:20 AM,42.8,33.8,70,30.15,-9999.0,NE,11.5,-,N/A,,Clear,40,2012-12-31 23:20:00
1:50 AM,42.8,32.0,66,30.15,-9999.0,NE,10.4,-,N/A,,Clear,40,2012-12-31 23:50:00
2:00 AM,43,33,59,30.15,6,NE,10.4,,,,,40,2013-01-01 00:00:00
2:20 AM,42.8,32.0,66,30.12,-9999.0,NNE,10.4,-,N/A,,Clear,30,2013-01-01 00:20:00
2:50 AM,42.8,32.0,66,30.12,-9999.0,NE,9.2,-,N/A,,Clear,40,2013-01-01 00:50:00
3:20 AM,42.8,30.2,61,30.12,-9999.0,North,5.8,-,N/A,,Clear,360,2013-01-01 01:20:00
3:50 AM,44.6,30.2,57,30.12,-9999.0,NNW,4.6,-,N/A,,Clear,340,2013-01-01 01:50:00
4:20 AM,44.6,28.4,53,30.12,-9999.0,NNE,4.6,-,N/A,,Clear,20,2013-01-01 02:20:00
4:50 AM,41.0,30.2,65,30.12,-9999.0,Calm,Calm,-,N/A,,Clear,0,2013-01-01 02:50:00
5:20 AM,42.8,32.0,66,30.12,-9999.0,NW,3.5,-,N/A,,Clear,320,2013-01-01 03:20:00
5:50 AM,39.2,32.0,75,30.12,-9999.0,NNW,3.5,-,N/A,,Clear,330,2013-01-01 03:50:00
6:20 AM,41.0,30.2,65,30.12,-9999.0,WNW,2.3,-,N/A,,Clear,300,2013-01-01 04:20:00
6:50 AM,39.2,32.0,75,30.12,-9999.0,WNW,3.5,-,N/A,,Clear,300,2013-01-01 04:50:00
7:20 AM,41.0,32.0,70,30.12,-9999.0,NNW,3.5,-,N/A,,Clear,340,2013-01-01 05:20:00
7:50 AM,42.8,32.0,66,30.12,-9999.0,WNW,3.5,-,N/A,,Clear,290,2013-01-01 05:50:00
8:00 AM,42,31,54,30.14,6,WNW,3.5,,,,,290,2013-01-01 06:00:00
8:20 AM,44.6,35.6,71,30.15,-9999.0,NW,4.6,-,N/A,,Clear,310,2013-01-01 06:20:00
8:50 AM,50.0,33.8,54,30.15,-9999.0,NNE,5.8,-,N/A,,Clear,20,2013-01-01 06:50:00
9:20 AM,55.4,30.2,38,30.15,-9999.0,NE,8.1,-,N/A,,Clear,40,2013-01-01 07:20:00
9:50 AM,55.4,30.2,38,30.15,-9999.0,NE,16.1,-,N/A,,Clear,50,2013-01-01 07:50:00
10:20 AM,57.2,30.2,36,30.12,-9999.0,NE,11.5,-,N/A,,Clear,50,2013-01-01 08:20:00
10:50 AM,59.0,30.2,34,30.12,-9999.0,NE,13.8,-,N/A,,Clear,50,2013-01-01 08:50:00
11:20 AM,59.0,32.0,36,30.12,-9999.0,NE,11.5,-,N/A,,Clear,40,2013-01-01 09:20:00
11:50 AM,60.8,32.0,34,30.12,-9999.0,NNE,10.4,-,N/A,,Clear,30,2013-01-01 09:50:00
12:20 PM,60.8,33.8,36,30.09,-9999.0,NNE,8.1,-,N/A,,Clear,30,2013-01-01 10:20:00
12:50 PM,60.8,32.0,34,30.09,-9999.0,NE,9.2,-,N/A,,Clear,50,2013-01-01 10:50:00
1:20 PM,60.8,32.0,34,30.09,-9999.0,NE,9.2,-,N/A,,Clear,40,2013-01-01 11:20:00
1:50 PM,60.8,32.0,34,30.09,-9999.0,ENE,8.1,-,N/A,,Clear,60,2013-01-01 11:50:00
2:00 PM,61,32,22,30.11,6,ENE,8.1,,,,,60,2013-01-01 12:00:00
2:20 PM,60.8,32.0,34,30.09,-9999.0,ENE,4.6,-,N/A,,Clear,70,2013-01-01 12:20:00
2:50 PM,60.8,35.6,39,30.09,-9999.0,NE,6.9,-,N/A,,Clear,50,2013-01-01 12:50:00
3:20 PM,59.0,35.6,42,30.09,-9999.0,NE,6.9,-,N/A,,Clear,50,2013-01-01 13:20:00
3:50 PM,57.2,37.4,48,30.09,-9999.0,NNE,5.8,-,N/A,,Clear,20,2013-01-01 13:50:00
4:20 PM,55.4,37.4,51,30.09,-9999.0,NNE,5.8,-,N/A,,Clear,20,2013-01-01 14:20:00
4:50 PM,53.6,37.4,54,30.09,-9999.0,NNE,4.6,-,N/A,,Clear,20,2013-01-01 14:50:00
5:20 PM,48.2,37.4,66,30.09,-9999.0,NNE,5.8,-,N/A,,Clear,30,2013-01-01 15:20:00
5:50 PM,44.6,39.2,81,30.12,-9999.0,NE,6.9,-,N/A,,Clear,40,2013-01-01 15:50:00
6:20 PM,44.6,37.4,76,30.12,-9999.0,NNE,6.9,-,N/A,,Clear,20,2013-01-01 16:20:00
6:50 PM,44.6,37.4,76,30.12,-9999.0,North,5.8,-,N/A,,Clear,350,2013-01-01 16:50:00
7:20 PM,46.4,35.6,66,30.12,-9999.0,North,5.8,-,N/A,,Clear,360,2013-01-01 17:20:00
7:50 PM,46.4,35.6,66,30.12,-9999.0,North,6.9,-,N/A,,Clear,360,2013-01-01 17:50:00
8:00 PM,47,35,52,30.14,6,North,6.9,,,,,0,2013-01-01 18:00:00
8:20 PM,48.2,33.8,58,30.15,-9999.0,East,2.3,-,N/A,,Clear,80,2013-01-01 18:20:00
8:50 PM,48.2,37.4,66,30.15,-9999.0,NNW,4.6,-,N/A,,Clear,330,2013-01-01 18:50:00
9:20 PM,42.8,37.4,81,30.15,-9999.0,North,5.8,-,N/A,,Clear,360,2013-01-01 19:20:00
9:50 PM,44.6,33.8,66,30.15,-9999.0,NNE,6.9,-,N/A,,Clear,30,2013-01-01 19:50:00
10:20 PM,42.8,33.8,70,30.15,-9999.0,NE,9.2,-,N/A,,Clear,40,2013-01-01 20:20:00
10:50 PM,42.8,33.8,70,30.15,-9999.0,NE,11.5,-,N/A,,Clear,40,2013-01-01 20:50:00
11:20 PM,42.8,33.8,70,30.15,-9999.0,NE,10.4,-,N/A,,Clear,40,2013-01-01 21:20:00
11:50 PM,42.8,33.8,70,30.15,-9999.0,NE,9.2,-,N/A,,Clear,40,2013-01-01 21:50:00